Time;durP1;ratioP1;P1;durP2;ratioP2;P2;SDS_P1;SDS_P2;PMS_P1;PMS_P2;Temp;Humidity;BMP_temperature;BMP_pressure;BME280_temperature;BME280_humidity;BME280_pressure;Samples;Min_cycle;Max_cycle;Signal;HPM_P1;HPM_P2
2022/01/26 00:06:42;;;;;;;27.45;15.10;;;;;;;-6.84;83.84;101546.56;4932403;29;20031;-64
2022/01/26 00:09:09;;;;;;;33.10;14.88;;;;;;;-6.80;84.06;101546.25;4932207;29;20438;-65
2022/01/26 00:11:36;;;;;;;32.40;16.30;;;;;;;-6.69;83.66;101543.44;4915978;29;20818;-68
2022/01/26 00:14:03;;;;;;;32.63;16.10;;;;;;;-6.70;83.26;101541.66;4930830;29;20031;-68
2022/01/26 00:16:43;;;;;;;33.07;16.00;;;;;;;-6.94;83.61;101499.38;4929156;29;20138;-64
2022/01/26 00:19:15;;;;;;;30.23;15.17;;;;;;;-6.76;82.81;101540.91;4932224;29;20522;-64
2022/01/26 00:21:47;;;;;;;31.97;16.23;;;;;;;-7.22;83.53;101480.91;4931967;29;20035;-64
2022/01/26 00:29:29;;;;;;;24.60;11.27;;;;;;;-6.97;83.84;101529.09;4930766;28;20058;-69
2022/01/26 00:40:19;;;;;;;32.30;15.47;;;;;;;-7.14;85.65;101532.03;4992689;28;20037;-68
2022/01/26 00:42:47;;;;;;;29.90;15.57;;;;;;;-7.11;85.88;101521.50;4992538;28;20415;-66
2022/01/26 00:45:13;;;;;;;20.03;10.67;;;;;;;-7.11;85.35;101519.00;4990857;28;20052;-68
2022/01/26 00:47:38;;;;;;;25.13;12.53;;;;;;;-7.18;85.76;101523.25;4989863;28;20051;-68
2022/01/26 00:50:24;;;;;;;20.40;10.93;;;;;;;-7.12;85.74;101517.19;4970439;28;20138;-67
2022/01/26 00:52:53;;;;;;;24.73;12.10;;;;;;;-7.16;85.70;101514.28;4954722;28;20547;-67
2022/01/26 00:55:20;;;;;;;28.47;12.97;;;;;;;-7.12;86.45;101502.13;4951125;29;20106;-65
2022/01/26 00:57:46;;;;;;;28.83;13.80;;;;;;;-7.02;86.16;101512.59;4934794;29;20031;-67
2022/01/26 01:00:18;;;;;;;29.87;13.43;;;;;;;-7.02;85.51;101510.97;4950968;29;20050;-63
2022/01/26 01:02:44;;;;;;;33.43;16.20;;;;;;;-7.26;85.98;101445.22;4950790;29;20180;-69
2022/01/26 01:05:35;;;;;;;31.60;15.03;;;;;;;-6.98;85.55;101484.63;4950764;28;20530;-67
2022/01/26 01:08:05;;;;;;;28.63;14.02;;;;;;;-7.29;85.40;101428.16;4950636;28;20147;-67
2022/01/26 01:10:31;;;;;;;25.60;14.30;;;;;;;-6.91;86.03;101488.81;4950731;29;20035;-66
2022/01/26 01:12:58;;;;;;;32.00;15.40;;;;;;;-6.95;85.23;101471.56;4950713;29;20094;-68
2022/01/26 01:15:26;;;;;;;30.67;15.67;;;;;;;-6.83;84.46;101481.50;4950638;29;20038;-69
2022/01/26 01:17:57;;;;;;;33.87;15.47;;;;;;;-7.05;83.72;101406.78;4950716;29;20031;-65
2022/01/26 01:23:44;;;;;;;30.23;16.10;;;;;;;-6.67;83.82;101471.72;4950668;29;20054;-64
2022/01/26 01:34:02;;;;;;;32.10;15.70;;;;;;;-6.82;85.02;101474.84;4991102;28;20096;-70
2022/01/26 01:36:28;;;;;;;29.17;13.87;;;;;;;-6.80;84.36;101465.91;4991577;28;20038;-70
2022/01/26 01:38:55;;;;;;;28.53;13.37;;;;;;;-6.86;84.74;101470.19;4990205;28;20030;-69
2022/01/26 01:41:20;;;;;;;30.07;15.17;;;;;;;-6.79;84.62;101474.31;4990306;28;20043;-67
2022/01/26 01:43:46;;;;;;;28.77;14.07;;;;;;;-6.94;84.19;101459.22;4990956;28;20031;-72
2022/01/26 01:46:11;;;;;;;27.00;14.10;;;;;;;-6.85;84.69;101475.38;4991500;28;20030;-67
2022/01/26 01:48:37;;;;;;;31.23;14.87;;;;;;;-6.85;84.31;101470.38;4990127;28;20477;-69
2022/01/26 01:51:08;;;;;;;29.27;13.23;;;;;;;-6.78;84.07;101482.03;4972716;28;20038;-69
2022/01/26 01:53:39;;;;;;;33.33;15.77;;;;;;;-6.96;84.26;101459.75;4991085;28;20030;-69
2022/01/26 01:56:06;;;;;;;29.57;14.63;;;;;;;-6.91;84.62;101473.75;4991121;28;20041;-72
2022/01/26 01:58:32;;;;;;;29.53;14.63;;;;;;;-6.85;83.97;101466.97;4990966;28;20030;-69
2022/01/26 02:00:57;;;;;;;30.60;14.10;;;;;;;-6.85;84.35;101464.47;4990092;28;20026;-71
2022/01/26 02:03:25;;;;;;;28.87;14.30;;;;;;;-6.78;83.36;101461.06;4991074;28;20057;-69
2022/01/26 02:05:50;;;;;;;26.07;13.53;;;;;;;-6.73;82.60;101460.94;4991258;28;20465;-70
2022/01/26 02:08:16;;;;;;;29.00;14.30;;;;;;;-6.71;82.89;101454.47;4991396;28;20113;-71
2022/01/26 02:10:43;;;;;;;28.23;13.63;;;;;;;-6.81;82.52;101446.53;4991149;28;20030;-71
2022/01/26 02:13:19;;;;;;;27.40;14.23;;;;;;;-6.80;82.61;101452.44;4990817;28;20030;-71
2022/01/26 02:15:56;;;;;;;27.53;14.50;;;;;;;-6.70;82.83;101452.88;4991130;28;20026;-69
2022/01/26 02:18:37;;;;;;;26.43;14.10;;;;;;;-6.75;82.90;101447.28;4991251;28;20035;-68
2022/01/26 02:55:49;;;;;;;31.33;14.90;;;;;;;-6.43;78.29;101411.66;4994772;28;20033;-72
2022/01/26 03:03:42;;;;;;;14.03;8.40;;;;;;;-7.13;79.09;101319.66;4994623;28;20027;-69
2022/01/26 03:06:13;;;;;;;26.70;12.53;;;;;;;-6.58;78.79;101420.78;4993628;28;20480;-68
2022/01/26 03:08:43;;;;;;;28.40;13.00;;;;;;;-6.68;79.21;101402.09;4994716;28;20030;-67
2022/01/26 03:11:12;;;;;;;28.10;13.90;;;;;;;-6.77;78.96;101354.91;4994323;28;20082;-68
2022/01/26 03:13:45;;;;;;;28.67;14.38;;;;;;;-6.41;78.36;101412.75;4994367;28;20432;-70
2022/01/26 03:16:16;;;;;;;27.40;13.43;;;;;;;-6.50;78.25;101410.06;4994429;28;20030;-71
2022/01/26 03:21:19;;;;;;;27.53;12.40;;;;;;;-6.81;78.07;101361.16;4994430;28;20034;-69
2022/01/26 03:34:25;;;;;;;27.93;13.87;;;;;;;-6.52;76.36;101384.75;4993712;28;20062;-69
2022/01/26 03:37:01;;;;;;;25.27;12.43;;;;;;;-6.45;76.26;101403.06;4993821;28;20041;-70
2022/01/26 03:39:28;;;;;;;26.23;13.60;;;;;;;-6.67;75.58;101361.22;4994042;28;20520;-68
2022/01/26 03:42:05;;;;;;;22.70;12.37;;;;;;;-6.51;76.99;101403.22;4993722;28;20106;-71
2022/01/26 03:44:31;;;;;;;28.90;14.00;;;;;;;-6.51;77.16;101408.25;4993436;28;20030;-68
2022/01/26 03:46:57;;;;;;;25.97;12.90;;;;;;;-6.51;76.09;101396.56;4993822;28;20594;-71
2022/01/26 03:49:22;;;;;;;18.10;9.23;;;;;;;-6.53;76.51;101394.59;4993503;28;20485;-70
2022/01/26 03:51:48;;;;;;;26.80;14.13;;;;;;;-6.62;76.12;101391.88;4993259;28;20516;-68
2022/01/26 03:54:16;;;;;;;24.10;10.80;;;;;;;-6.58;75.81;101403.19;4993585;28;20065;-68
2022/01/26 03:56:41;;;;;;;12.57;7.60;;;;;;;-6.61;76.03;101403.72;4993186;28;20073;-69
2022/01/26 03:59:08;;;;;;;13.83;8.37;;;;;;;-6.58;76.06;101406.63;4993148;28;20109;-69
2022/01/26 04:01:34;;;;;;;23.57;12.17;;;;;;;-6.56;76.54;101415.22;4992927;28;20042;-70
2022/01/26 04:04:00;;;;;;;24.03;11.90;;;;;;;-6.59;75.97;101393.84;4991524;28;20034;-70
2022/01/26 04:06:26;;;;;;;24.50;11.80;;;;;;;-6.60;76.48;101408.03;4993133;28;20027;-76
2022/01/26 04:08:52;;;;;;;28.67;12.53;;;;;;;-6.85;76.10;101346.47;4993275;28;20042;-71
2022/01/26 04:14:06;;;;;;;27.50;12.20;;;;;;;-6.54;76.07;101401.25;4992737;28;20053;-71
2022/01/26 04:16:32;;;;;;;23.03;12.00;;;;;;;-6.49;76.33;101406.84;4993174;28;20053;-72
2022/01/26 04:18:58;;;;;;;27.07;12.83;;;;;;;-6.74;76.04;101353.66;4992858;28;20031;-71
2022/01/26 04:23:58;;;;;;;24.93;12.90;;;;;;;-6.28;75.18;101397.50;4992850;28;20030;-71
2022/01/26 04:26:30;;;;;;;18.87;9.97;;;;;;;-6.31;74.44;101402.19;4992460;28;20030;-73
2022/01/26 04:29:01;;;;;;;23.53;12.00;;;;;;;-6.57;74.98;101369.84;4992968;28;20485;-70
2022/01/26 04:31:27;;;;;;;25.80;12.17;;;;;;;-6.42;74.86;101398.41;4990984;28;20034;-71
2022/01/26 04:33:53;;;;;;;21.63;11.93;;;;;;;-6.62;75.15;101379.31;4992733;28;20031;-74
2022/01/26 04:36:28;;;;;;;21.53;11.80;;;;;;;-6.57;75.22;101395.84;4992108;28;20127;-71
2022/01/26 04:38:58;;;;;;;23.80;12.60;;;;;;;-6.51;76.12;101405.72;4992415;28;20038;-71
2022/01/26 04:44:01;;;;;;;24.00;12.13;;;;;;;-6.31;75.02;101400.56;4992498;28;20030;-71
2022/01/26 04:46:27;;;;;;;24.60;12.17;;;;;;;-6.29;75.13;101399.16;4992696;28;20033;-68
2022/01/26 04:48:53;;;;;;;24.43;13.37;;;;;;;-6.23;74.81;101381.38;4992193;28;20030;-71
2022/01/26 04:51:18;;;;;;;23.70;11.87;;;;;;;-6.09;73.37;101393.03;4991942;28;20125;-69
2022/01/26 04:53:44;;;;;;;23.93;12.00;;;;;;;-6.14;74.14;101387.50;4992246;28;20180;-72
2022/01/26 04:56:10;;;;;;;24.30;12.30;;;;;;;-6.45;73.72;101331.09;4992350;28;20037;-69
2022/01/26 04:58:36;;;;;;;26.93;13.00;;;;;;;-6.14;74.23;101394.13;4992135;28;20026;-71
2022/01/26 05:01:02;;;;;;;22.97;11.67;;;;;;;-6.47;73.50;101325.00;4992003;28;20034;-72
2022/01/26 05:03:27;;;;;;;26.13;13.27;;;;;;;-6.07;74.10;101366.47;4974509;28;20038;-71
2022/01/26 05:05:53;;;;;;;28.27;13.30;;;;;;;-5.91;73.64;101369.13;4991594;28;20081;-68
2022/01/26 05:08:18;;;;;;;25.10;13.70;;;;;;;-5.73;73.90;101395.53;4992012;28;20108;-69
2022/01/26 05:10:44;;;;;;;28.77;13.73;;;;;;;-5.65;73.36;101377.19;4991999;28;20026;-73
2022/01/26 05:13:13;;;;;;;26.07;12.97;;;;;;;-5.94;72.51;101346.16;4987026;28;20031;-68
2022/01/26 05:15:39;;;;;;;27.23;13.18;;;;;;;-5.57;72.68;101391.56;4989151;28;20029;-71
2022/01/26 05:18:06;;;;;;;26.70;13.57;;;;;;;-5.72;72.40;101352.03;4973403;28;20039;-68
2022/01/26 05:20:32;;;;;;;26.60;13.83;;;;;;;-5.47;72.53;101387.59;4991501;28;20403;-71
2022/01/26 05:22:58;;;;;;;33.37;16.53;;;;;;;-5.62;72.64;101361.56;4990719;28;20551;-72
2022/01/26 05:25:24;;;;;;;25.93;12.87;;;;;;;-5.48;72.80;101393.34;4991929;28;20035;-70
2022/01/26 05:27:49;;;;;;;25.67;13.80;;;;;;;-5.83;72.56;101338.25;4991894;28;20034;-69
2022/01/26 05:30:15;;;;;;;26.13;12.43;;;;;;;-5.65;73.03;101383.84;4991306;28;20080;-72
2022/01/26 05:32:40;;;;;;;27.33;13.33;;;;;;;-5.89;73.96;101356.03;4991323;28;20089;-69
2022/01/26 05:35:06;;;;;;;25.63;14.63;;;;;;;-5.74;74.50;101401.28;4991116;28;20416;-71
2022/01/26 05:37:32;;;;;;;27.37;14.57;;;;;;;-5.82;74.58;101390.31;4990410;28;20030;-69
2022/01/26 05:39:58;;;;;;;30.17;17.40;;;;;;;-5.79;76.03;101392.31;4991427;28;20050;-71
2022/01/26 05:42:24;;;;;;;33.23;17.10;;;;;;;-5.82;76.04;101400.38;4990328;28;20034;-69
2022/01/26 05:44:50;;;;;;;28.40;14.50;;;;;;;-5.86;77.11;101396.63;4991542;28;20066;-74
2022/01/26 05:47:19;;;;;;;25.93;13.87;;;;;;;-6.15;77.01;101358.03;4991176;28;20513;-69
2022/01/26 05:49:44;;;;;;;29.33;14.68;;;;;;;-5.98;77.16;101405.25;4990565;28;20045;-69
2022/01/26 05:52:10;;;;;;;29.87;15.10;;;;;;;-5.96;77.69;101400.41;4991084;28;20054;-72
2022/01/26 05:54:36;;;;;;;26.43;13.47;;;;;;;-5.99;78.13;101410.09;4991399;28;20039;-70
2022/01/26 05:57:02;;;;;;;28.43;14.63;;;;;;;-5.99;78.04;101416.06;4991528;28;20026;-68
2022/01/26 05:59:27;;;;;;;29.53;16.23;;;;;;;-6.12;79.09;101390.19;4991045;28;20053;-69
2022/01/26 06:01:53;;;;;;;32.43;15.30;;;;;;;-5.95;79.26;101420.69;4990991;28;20030;-71
2022/01/26 06:04:18;;;;;;;30.17;16.07;;;;;;;-6.03;79.15;101411.38;4990783;28;20041;-69
2022/01/26 06:06:44;;;;;;;32.57;15.27;;;;;;;-6.11;79.47;101400.41;4991332;28;20477;-68
2022/01/26 06:09:10;;;;;;;30.07;16.00;;;;;;;-6.05;79.59;101401.13;4991099;28;20041;-69
2022/01/26 06:11:36;;;;;;;28.57;15.77;;;;;;;-6.08;79.72;101404.91;4991355;28;20042;-73
2022/01/26 06:14:02;;;;;;;36.77;15.37;;;;;;;-6.04;79.73;101422.16;4991360;28;20065;-71
2022/01/26 06:16:27;;;;;;;33.40;15.97;;;;;;;-6.03;80.85;101418.91;4991019;28;20509;-70
2022/01/26 06:18:53;;;;;;;29.03;15.00;;;;;;;-6.05;81.19;101423.75;4990961;28;20085;-71
2022/01/26 06:21:18;;;;;;;33.93;16.67;;;;;;;-5.93;80.92;101420.84;4989962;28;20030;-68
2022/01/26 06:23:44;;;;;;;32.80;16.80;;;;;;;-5.86;80.41;101420.88;4991193;28;20092;-71
2022/01/26 06:26:09;;;;;;;29.03;15.73;;;;;;;-5.88;79.65;101423.22;4990753;28;20175;-69
2022/01/26 06:28:35;;;;;;;31.17;16.37;;;;;;;-5.77;79.43;101421.97;4994936;28;20034;-68
2022/01/26 06:31:04;;;;;;;28.47;15.47;;;;;;;-5.76;79.25;101407.75;4995091;28;20543;-73
2022/01/26 06:33:34;;;;;;;32.13;15.98;;;;;;;-5.67;78.30;101411.31;4994669;28;20037;-68
2022/01/26 06:36:00;;;;;;;30.30;16.33;;;;;;;-5.70;78.75;101403.44;4993922;28;20026;-72
2022/01/26 06:38:28;;;;;;;28.03;15.97;;;;;;;-5.63;77.94;101411.00;4990850;28;20034;-72
2022/01/26 06:40:54;;;;;;;34.93;15.83;;;;;;;-5.71;77.98;101392.50;4993490;28;20034;-71
2022/01/26 06:43:22;;;;;;;34.57;17.53;;;;;;;-5.55;78.72;101406.84;4994234;28;20038;-71
2022/01/26 06:45:51;;;;;;;30.90;16.33;;;;;;;-5.56;79.54;101412.59;4959590;28;20049;-71
2022/01/26 06:51:12;;;;;;;31.10;15.63;;;;;;;-5.56;79.80;101389.94;4896214;29;19929;-70
2022/01/26 06:53:38;;;;;;;30.00;16.93;;;;;;;-5.60;79.47;101373.59;4894928;29;20036;-71
2022/01/26 06:56:04;;;;;;;28.10;14.17;;;;;;;-5.41;79.07;101399.28;4895608;29;20048;-72
2022/01/26 06:58:30;;;;;;;31.60;15.00;;;;;;;-5.25;77.79;101401.91;4895089;29;20052;-72
2022/01/26 07:00:57;;;;;;;27.10;15.37;;;;;;;-5.10;78.01;101409.44;4887527;29;20539;-72
2022/01/26 07:03:23;;;;;;;36.93;18.97;;;;;;;-5.16;77.76;101392.00;4887895;29;20522;-72
2022/01/26 07:05:48;;;;;;;34.80;18.77;;;;;;;-4.95;77.25;101417.84;4890228;29;20020;-72
2022/01/26 07:08:14;;;;;;;59.30;26.17;;;;;;;-5.18;77.08;101370.81;4888567;29;20048;-71
2022/01/26 07:10:40;;;;;;;34.47;18.90;;;;;;;-4.92;77.65;101408.09;4893524;29;20037;-72
2022/01/26 07:13:05;;;;;;;30.47;17.70;;;;;;;-5.01;78.07;101397.00;4894298;29;20043;-72
2022/01/26 07:23:46;;;;;;;33.47;17.40;;;;;;;-4.72;80.43;101408.75;4885628;29;20506;-70
2022/01/26 07:26:11;;;;;;;35.87;19.30;;;;;;;-4.87;80.64;101357.53;4890593;29;20040;-71
2022/01/26 07:28:39;;;;;;;39.80;19.17;;;;;;;-4.52;80.49;101400.00;4972876;28;20448;-71
2022/01/26 07:31:06;;;;;;;32.77;16.90;;;;;;;-4.38;80.37;101402.44;4990469;28;20026;-72
2022/01/26 07:33:32;;;;;;;31.50;16.37;;;;;;;-4.41;80.21;101394.53;4930437;28;20050;-71
2022/01/26 07:35:58;;;;;;;30.00;16.50;;;;;;;-4.34;80.31;101397.75;4992368;28;20026;-71
2022/01/26 07:38:25;;;;;;;27.20;15.83;;;;;;;-4.20;79.54;101396.75;4982123;28;20026;-71
2022/01/26 07:40:52;;;;;;;31.70;15.87;;;;;;;-4.01;78.87;101404.72;4946553;28;20114;-71
2022/01/26 07:43:18;;;;;;;36.07;16.50;;;;;;;-3.89;77.65;101398.50;4988142;28;20057;-72
2022/01/26 07:45:43;;;;;;;23.83;14.43;;;;;;;-3.80;73.93;101391.94;4992596;28;20068;-71
2022/01/26 07:48:09;;;;;;;31.90;15.70;;;;;;;-3.72;75.31;101396.94;4992353;28;20085;-71
2022/01/26 07:50:35;;;;;;;30.67;15.67;;;;;;;-3.68;75.69;101391.47;4992269;28;20026;-70
2022/01/26 07:53:01;;;;;;;27.67;16.43;;;;;;;-3.58;74.88;101390.13;4992129;28;20053;-71
2022/01/26 07:55:27;;;;;;;29.37;14.63;;;;;;;-3.49;73.57;101385.16;4992756;28;20061;-71
2022/01/26 07:57:55;;;;;;;25.93;13.63;;;;;;;-3.83;70.98;101343.66;4992386;28;20030;-71
2022/01/26 08:00:20;;;;;;;25.37;13.40;;;;;;;-3.56;70.30;101380.19;4971912;28;20049;-70
2022/01/26 08:02:46;;;;;;;26.67;14.80;;;;;;;-3.46;70.15;101393.06;4992428;28;20023;-71
2022/01/26 08:05:14;;;;;;;25.03;12.50;;;;;;;-3.48;69.13;101386.94;4992015;28;20031;-71
2022/01/26 08:07:40;;;;;;;25.43;12.77;;;;;;;-3.42;68.95;101386.72;4992732;28;20038;-71
2022/01/26 08:10:07;;;;;;;29.57;14.00;;;;;;;-3.64;69.86;101338.06;4988894;28;20025;-71
2022/01/26 08:12:33;;;;;;;27.00;14.83;;;;;;;-3.31;68.94;101387.88;4990648;28;20584;-71
2022/01/26 08:14:58;;;;;;;25.70;14.07;;;;;;;-3.37;69.04;101392.25;4975180;28;20544;-70
2022/01/26 08:17:24;;;;;;;27.43;14.10;;;;;;;-3.44;69.24;101367.97;4992400;28;20039;-70
2022/01/26 08:19:55;;;;;;;22.93;11.90;;;;;;;-3.33;68.73;101394.38;4989805;28;20050;-70
2022/01/26 08:22:21;;;;;;;23.80;13.27;;;;;;;-3.34;68.50;101392.56;4991109;28;20507;-70
2022/01/26 08:24:48;;;;;;;23.20;12.77;;;;;;;-3.27;68.50;101387.47;4990604;28;20026;-70
2022/01/26 08:27:14;;;;;;;25.10;13.53;;;;;;;-3.18;68.57;101395.13;4985364;28;20027;-70
2022/01/26 08:29:47;;;;;;;21.93;12.30;;;;;;;-3.05;68.20;101394.78;4990531;28;20512;-70
2022/01/26 08:32:12;;;;;;;23.97;13.40;;;;;;;-2.93;68.07;101396.06;4990807;28;20022;-72
2022/01/26 08:34:39;;;;;;;26.57;15.47;;;;;;;-2.84;67.36;101392.00;4990544;28;20038;-73
2022/01/26 08:37:05;;;;;;;25.47;14.57;;;;;;;-2.74;67.00;101392.97;4989581;28;20704;-71
2022/01/26 08:39:32;;;;;;;21.47;12.27;;;;;;;-2.65;66.95;101389.78;4985437;28;20117;-72
2022/01/26 08:41:59;;;;;;;25.23;13.17;;;;;;;-2.77;66.22;101351.50;4983528;28;20026;-72
2022/01/26 08:44:24;;;;;;;29.73;15.20;;;;;;;-2.46;66.53;101391.69;4969530;28;20030;-72
2022/01/26 08:46:51;;;;;;;25.67;14.27;;;;;;;-2.34;65.47;101389.53;4988943;28;20042;-72
2022/01/26 08:49:17;;;;;;;24.10;12.70;;;;;;;-2.29;65.00;101386.75;4988120;28;20481;-72
2022/01/26 08:51:42;;;;;;;24.63;12.67;;;;;;;-2.26;63.66;101391.22;4990265;28;20113;-72
2022/01/26 08:54:10;;;;;;;21.57;12.03;;;;;;;-2.29;64.23;101386.75;4991429;28;20042;-71
2022/01/26 08:56:37;;;;;;;26.67;13.18;;;;;;;-2.15;64.51;101388.16;4990942;28;20425;-72
2022/01/26 08:59:03;;;;;;;23.37;12.23;;;;;;;-2.17;64.09;101363.44;4957572;28;20044;-72
2022/01/26 09:01:29;;;;;;;25.07;12.53;;;;;;;-2.05;64.00;101376.47;4987575;28;20034;-71
2022/01/26 09:03:54;;;;;;;25.07;13.40;;;;;;;-1.95;64.57;101385.13;4985145;28;20031;-74
2022/01/26 09:06:20;;;;;;;21.97;12.37;;;;;;;-1.98;64.26;101381.41;4990393;28;20397;-71
2022/01/26 09:08:51;;;;;;;25.57;13.13;;;;;;;-1.91;64.67;101372.78;4963463;28;20074;-72
2022/01/26 09:11:21;;;;;;;24.57;12.37;;;;;;;-2.09;63.95;101326.25;4985686;28;20034;-72
2022/01/26 09:13:47;;;;;;;25.00;12.60;;;;;;;-2.17;64.81;101326.41;4987767;28;20027;-72
2022/01/26 09:16:18;;;;;;;27.83;14.57;;;;;;;-1.88;65.11;101365.50;4988581;28;20018;-72
2022/01/26 09:21:09;;;;;;;22.27;12.23;;;;;;;-2.17;63.81;101316.28;4990257;28;20026;-72
2022/01/26 09:23:35;;;;;;;24.87;13.80;;;;;;;-1.76;64.49;101365.84;4990408;28;20088;-72
2022/01/26 09:26:00;;;;;;;26.07;12.77;;;;;;;-1.77;64.53;101341.28;4986431;28;20034;-71
2022/01/26 09:28:25;;;;;;;25.83;12.80;;;;;;;-1.68;65.50;101360.81;4989323;28;20061;-72
2022/01/26 09:30:52;;;;;;;23.77;11.97;;;;;;;-1.66;64.92;101360.97;4990375;28;20019;-71
2022/01/26 09:33:18;;;;;;;22.80;12.37;;;;;;;-1.58;64.85;101361.72;4989490;28;20124;-71
2022/01/26 09:35:44;;;;;;;26.03;13.37;;;;;;;-1.50;64.13;101363.38;4990050;28;20030;-75
2022/01/26 09:38:10;;;;;;;21.80;11.43;;;;;;;-1.44;64.41;101351.34;4989754;28;20022;-71
2022/01/26 09:40:36;;;;;;;24.03;12.57;;;;;;;-1.43;64.55;101345.53;4985278;28;20022;-71
2022/01/26 09:43:02;;;;;;;22.47;12.10;;;;;;;-1.45;63.66;101344.47;4987403;28;20495;-71
2022/01/26 09:45:29;;;;;;;19.77;8.73;;;;;;;-1.54;63.83;101334.31;4964604;28;20034;-72
2022/01/26 09:47:54;;;;;;;19.10;8.73;;;;;;;-1.66;63.68;101302.72;4990244;28;20031;-70
2022/01/26 09:50:20;;;;;;;22.17;11.30;;;;;;;-1.34;64.13;101332.88;4989347;28;20034;-70
2022/01/26 09:52:48;;;;;;;19.73;8.37;;;;;;;-1.26;61.73;101315.88;4986380;28;20097;-71
2022/01/26 09:55:16;;;;;;;17.90;9.80;;;;;;;-1.09;60.59;101330.22;4990399;28;20030;-70
2022/01/26 09:57:43;;;;;;;20.50;10.93;;;;;;;-0.99;60.82;101317.69;4988796;28;20026;-71
2022/01/26 10:00:09;;;;;;;19.97;10.20;;;;;;;-0.87;60.39;101323.94;4951509;28;20516;-71
2022/01/26 10:02:35;;;;;;;19.60;10.77;;;;;;;-0.76;60.43;101322.44;4945888;28;20145;-76
2022/01/26 10:05:10;;;;;;;19.33;9.50;;;;;;;-0.66;60.85;101325.09;4952158;28;20090;-76
2022/01/26 10:18:35;;;;;;;21.03;10.60;;;;;;;-0.65;60.40;101310.75;4961688;28;20058;-72
2022/01/26 10:21:03;;;;;;;18.33;8.97;;;;;;;-0.71;60.71;101315.25;4918098;28;20129;-73
2022/01/26 10:23:36;;;;;;;22.07;10.60;;;;;;;-0.91;61.04;101306.66;4953175;28;20043;-71
2022/01/26 10:26:16;;;;;;;22.27;11.10;;;;;;;-0.84;61.31;101316.59;4959990;28;20043;-73
2022/01/26 10:28:52;;;;;;;15.23;7.93;;;;;;;-0.86;61.81;101313.06;4959795;28;20513;-71
2022/01/26 10:31:19;;;;;;;21.73;10.80;;;;;;;-1.04;62.06;101293.53;4977447;28;20046;-70
2022/01/26 10:34:00;;;;;;;18.60;10.00;;;;;;;-0.95;62.49;101296.94;4984228;28;20031;-70
2022/01/26 10:36:33;;;;;;;20.83;11.00;;;;;;;-0.91;63.01;101300.66;4990522;28;20500;-70
2022/01/26 10:39:03;;;;;;;18.87;10.07;;;;;;;-0.98;63.82;101287.41;4987471;28;21952;-71
2022/01/26 10:41:28;;;;;;;19.87;10.73;;;;;;;-1.12;63.45;101246.28;4989465;28;20085;-71
2022/01/26 10:43:56;;;;;;;22.23;11.57;;;;;;;-0.85;63.41;101289.50;4986652;28;20042;-71
2022/01/26 10:46:36;;;;;;;29.27;14.53;;;;;;;-0.79;63.60;101283.22;4989377;28;20049;-70
2022/01/26 10:49:10;;;;;;;23.80;13.60;;;;;;;-0.79;64.51;101285.75;4983343;28;20092;-71
2022/01/26 10:51:54;;;;;;;20.83;11.00;;;;;;;-1.02;64.33;101246.44;4984657;28;20140;-72
2022/01/26 10:54:37;;;;;;;24.27;11.13;;;;;;;-0.82;64.50;101282.16;4982028;28;20041;-71
2022/01/26 10:57:25;;;;;;;19.73;11.10;;;;;;;-0.79;64.26;101275.63;4987454;28;20034;-70
2022/01/26 10:59:51;;;;;;;19.83;10.17;;;;;;;-0.82;64.40;101256.81;4923857;29;20051;-71
2022/01/26 11:02:28;;;;;;;13.83;7.27;;;;;;;-0.79;63.18;101266.34;4914596;29;20047;-71
2022/01/26 11:04:54;;;;;;;23.27;11.77;;;;;;;-0.85;64.89;101251.47;4910628;29;20036;-71
2022/01/26 11:07:19;;;;;;;18.87;10.70;;;;;;;-0.86;63.72;101254.75;4910662;29;20068;-71
2022/01/26 11:09:48;;;;;;;16.83;9.07;;;;;;;-0.88;64.02;101250.28;4913336;29;20079;-69
2022/01/26 11:12:16;;;;;;;20.23;11.45;;;;;;;-0.74;64.76;101259.19;4907735;29;20043;-69
2022/01/26 11:14:50;;;;;;;21.97;11.63;;;;;;;-0.91;65.14;101204.34;4929049;29;20042;-64
2022/01/26 11:17:29;;;;;;;18.80;9.60;;;;;;;-0.61;64.40;101246.94;4931668;29;20027;-72
2022/01/26 11:20:01;;;;;;;11.55;6.90;;;;;;;-0.57;64.29;101245.56;4930262;29;20118;-71
2022/01/26 11:22:31;;;;;;;16.97;9.90;;;;;;;-0.63;64.03;101248.41;4917745;29;20507;-70
2022/01/26 11:25:11;;;;;;;20.87;10.53;;;;;;;-0.58;63.70;101247.19;4919978;29;20068;-71
2022/01/26 11:27:38;;;;;;;;;;;;;;;-0.48;63.59;101243.00;4920224;29;20059;-71
2022/01/26 11:30:31;;;;;;;18.17;8.17;;;;;;;-0.39;63.61;101247.28;4932651;28;19954;-72
2022/01/26 11:32:59;;;;;;;21.47;11.07;;;;;;;-0.23;63.86;101241.97;4931861;28;20043;-69
2022/01/26 11:35:28;;;;;;;20.70;10.63;;;;;;;-0.13;63.15;101235.22;4991196;28;20038;-70
2022/01/26 11:38:18;;;;;;;18.83;10.35;;;;;;;-0.06;63.18;101228.31;4991055;28;20031;-72
2022/01/26 11:46:25;;;;;;;16.47;8.63;;;;;;;0.17;62.32;101229.50;4982976;28;20050;-70
2022/01/26 11:49:01;;;;;;;20.53;9.90;;;;;;;0.21;62.34;101221.41;4988129;28;20042;-71
2022/01/26 11:51:47;;;;;;;29.23;16.17;;;;;;;0.30;62.17;101214.63;4983001;28;20527;-72
2022/01/26 11:54:18;;;;;;;28.10;15.67;;;;;;;0.35;61.87;101216.69;4985571;28;20042;-70
2022/01/26 11:57:03;;;;;;;21.87;11.67;;;;;;;0.45;63.32;101210.03;4983552;28;20485;-71
2022/01/26 11:59:32;;;;;;;21.30;11.70;;;;;;;0.46;62.57;101196.59;4991613;28;20074;-73
2022/01/26 12:02:05;;;;;;;21.53;9.90;;;;;;;0.43;61.87;101206.47;4988546;28;20034;-73
2022/01/26 12:04:33;;;;;;;19.83;10.13;;;;;;;0.45;62.40;101202.41;4979544;28;20038;-73
2022/01/26 12:07:09;;;;;;;20.47;9.77;;;;;;;0.38;61.21;101192.47;4991599;28;20041;-73
2022/01/26 12:09:35;;;;;;;18.93;7.80;;;;;;;0.38;60.49;101199.19;4985544;28;20038;-72
2022/01/26 12:12:00;;;;;;;20.27;11.57;;;;;;;0.38;61.35;101192.47;4988178;28;20034;-72
2022/01/26 12:14:26;;;;;;;20.17;10.30;;;;;;;0.27;61.75;101135.63;4991642;28;20023;-73
2022/01/26 12:17:23;;;;;;;21.80;11.70;;;;;;;0.53;61.63;101179.34;4991219;28;20022;-73
2022/01/26 12:31:59;;;;;;;18.93;10.70;;;;;;;0.59;61.86;101167.19;4921002;29;20044;-70
2022/01/26 12:34:37;;;;;;;20.10;11.67;;;;;;;0.62;62.20;101186.13;4915201;29;20059;-70
2022/01/26 12:42:39;;;;;;;19.73;10.80;;;;;;;0.72;58.56;101176.78;4920227;29;20540;-70
2022/01/26 12:45:05;;;;;;;21.42;11.45;;;;;;;0.83;58.55;101177.72;4923902;29;20040;-70
2022/01/26 12:47:33;;;;;;;20.63;11.27;;;;;;;0.96;59.34;101178.03;4881075;29;20172;-71
2022/01/26 12:49:58;;;;;;;22.73;11.73;;;;;;;0.99;59.68;101172.31;4934837;28;20042;-70
2022/01/26 12:52:25;;;;;;;16.93;10.73;;;;;;;1.16;59.74;101169.56;4990577;28;20050;-71
2022/01/26 12:54:50;;;;;;;21.60;10.70;;;;;;;0.95;59.40;101121.19;4990660;28;20034;-70
2022/01/26 12:57:16;;;;;;;20.37;11.87;;;;;;;1.34;59.61;101167.69;4991031;28;20095;-70
2022/01/26 12:59:43;;;;;;;18.40;11.40;;;;;;;1.33;58.85;101150.66;4991041;28;20034;-70
2022/01/26 13:02:09;;;;;;;23.33;13.00;;;;;;;1.25;58.74;101123.69;4990945;28;20038;-71
2022/01/26 13:04:34;;;;;;;18.63;11.37;;;;;;;1.41;57.60;101130.97;4990921;28;20026;-71
2022/01/26 13:07:00;;;;;;;18.13;9.57;;;;;;;1.59;56.96;101159.59;4976405;28;20026;-69
2022/01/26 13:09:37;;;;;;;17.87;10.20;;;;;;;1.32;56.78;101104.75;4990668;28;20034;-70
2022/01/26 13:12:03;;;;;;;17.70;10.13;;;;;;;1.67;56.51;101160.22;4990614;28;20169;-70
2022/01/26 13:14:41;;;;;;;16.73;9.77;;;;;;;1.65;55.15;101143.97;4990503;28;20476;-71
2022/01/26 13:20:01;;;;;;;14.50;7.50;;;;;;;1.82;52.89;101158.06;4986450;28;20034;-70
2022/01/26 13:22:58;;;;;;;12.87;6.93;;;;;;;1.72;53.05;101167.50;4988586;28;20497;-70
2022/01/26 13:25:39;;;;;;;14.47;7.63;;;;;;;1.69;53.02;101168.91;4990011;28;20030;-70
2022/01/26 13:39:10;;;;;;;13.43;6.70;;;;;;;1.57;53.78;101149.31;4986521;28;20497;-70
2022/01/26 13:41:45;;;;;;;;;;;;;;;1.67;54.55;101162.78;4989312;28;20031;-70
2022/01/26 13:57:07;;;;;;;15.10;9.13;;;;;;;1.63;59.70;101170.94;4990180;28;20042;-70
2022/01/26 13:59:43;;;;;;;15.33;8.60;;;;;;;1.60;59.14;101172.44;4954598;28;20038;-69
2022/01/26 14:02:32;;;;;;;13.77;8.20;;;;;;;1.55;60.00;101170.28;4989169;28;20037;-70
2022/01/26 14:04:57;;;;;;;17.47;10.73;;;;;;;1.56;61.06;101175.50;4947269;29;20039;-70